createdAt,value
2018-12-27T00:01:07.381Z,63.73
2018-12-27T00:03:35.810Z,62.23
2018-12-27T00:06:04.267Z,55.50
2018-12-27T00:08:32.701Z,58.07
2018-12-27T00:11:01.146Z,59.67
2018-12-27T00:13:29.609Z,57.37
2018-12-27T00:15:58.058Z,56.73
2018-12-27T00:18:26.507Z,55.87
2018-12-27T00:20:54.951Z,53.20
2018-12-27T00:23:23.386Z,54.53
2018-12-27T00:25:51.852Z,54.57
2018-12-27T00:28:20.369Z,56.53
2018-12-27T00:30:48.986Z,59.33
2018-12-27T00:33:17.587Z,55.67
2018-12-27T00:35:46.197Z,55.93
2018-12-27T00:38:14.791Z,57.40
2018-12-27T00:40:43.400Z,58.20
2018-12-27T00:43:11.990Z,57.40
2018-12-27T00:45:40.602Z,58.80
2018-12-27T00:48:09.225Z,57.37
2018-12-27T00:50:37.813Z,53.77
2018-12-27T00:53:06.415Z,55.57
2018-12-27T00:55:35.013Z,56.93
2018-12-27T00:58:03.618Z,57.77
2018-12-27T01:00:32.222Z,52.30
2018-12-27T01:03:00.827Z,54.20
2018-12-27T01:05:29.416Z,54.30
2018-12-27T01:07:58.029Z,58.53
2018-12-27T01:10:26.629Z,53.17
2018-12-27T01:12:55.243Z,56.07
2018-12-27T01:15:23.871Z,53.30
2018-12-27T01:17:52.475Z,53.87
2018-12-27T01:20:21.083Z,56.27
2018-12-27T01:22:49.695Z,50.20
2018-12-27T01:25:18.277Z,56.23
2018-12-27T01:27:46.887Z,51.57
2018-12-27T01:30:15.484Z,53.37
2018-12-27T01:32:44.090Z,54.10
2018-12-27T01:35:12.680Z,53.97
2018-12-27T01:37:41.299Z,48.27
2018-12-27T01:40:09.880Z,48.70
2018-12-27T01:42:38.486Z,46.43
2018-12-27T01:45:07.078Z,51.53
2018-12-27T01:47:35.679Z,48.70
2018-12-27T01:50:04.261Z,47.20
2018-12-27T01:52:32.904Z,50.50
2018-12-27T01:55:01.499Z,44.60
2018-12-27T01:57:30.102Z,49.53
2018-12-27T01:59:58.693Z,47.57
2018-12-27T02:02:27.305Z,46.07
2018-12-27T02:04:55.904Z,47.43
2018-12-27T02:07:24.519Z,42.07
2018-12-27T02:09:53.106Z,45.93
2018-12-27T02:12:21.711Z,41.13
2018-12-27T02:14:50.321Z,40.53
2018-12-27T02:17:18.919Z,37.80
2018-12-27T02:19:47.536Z,37.57
2018-12-27T02:22:16.132Z,38.40
2018-12-27T02:24:44.740Z,37.03
2018-12-27T02:27:13.333Z,36.40
2018-12-27T02:29:42.010Z,35.57
2018-12-27T02:32:10.611Z,35.10
2018-12-27T02:34:39.221Z,37.40
2018-12-27T02:37:07.815Z,29.27
2018-12-27T02:39:36.425Z,32.07
2018-12-27T02:42:05.030Z,28.43
2018-12-27T02:44:33.737Z,28.43
2018-12-27T02:47:02.330Z,27.37
2018-12-27T02:49:30.940Z,27.67
2018-12-27T02:51:59.556Z,30.93
2018-12-27T02:54:28.229Z,23.33
2018-12-27T02:56:56.821Z,23.10
2018-12-27T02:59:25.437Z,21.73
2018-12-27T03:01:54.035Z,23.20
2018-12-27T03:04:22.655Z,21.93
2018-12-27T03:06:51.262Z,21.57
2018-12-27T03:09:19.876Z,20.60
2018-12-27T03:11:48.472Z,21.93
2018-12-27T03:14:17.077Z,23.20
2018-12-27T03:16:45.677Z,19.67
2018-12-27T03:19:14.332Z,20.93
2018-12-27T03:21:42.917Z,19.50
2018-12-27T03:24:11.515Z,19.07
2018-12-27T03:26:40.125Z,18.63
2018-12-27T03:29:08.709Z,22.93
2018-12-27T03:31:37.329Z,19.57
2018-12-27T03:34:05.941Z,20.17
2018-12-27T03:36:34.563Z,21.47
2018-12-27T03:39:04.022Z,21.53
2018-12-27T03:41:32.639Z,21.63
2018-12-27T03:44:01.297Z,20.43
2018-12-27T03:46:29.907Z,21.07
2018-12-27T03:48:58.508Z,22.17
2018-12-27T03:51:27.114Z,20.33
2018-12-27T03:53:55.719Z,21.23
2018-12-27T03:56:24.333Z,20.63
2018-12-27T03:58:52.911Z,19.93
2018-12-27T04:01:21.518Z,18.67
2018-12-27T04:03:50.107Z,17.97
2018-12-27T04:06:18.737Z,19.43
2018-12-27T04:08:47.385Z,18.50
2018-12-27T04:11:16.017Z,17.83
2018-12-27T04:13:44.616Z,17.90
2018-12-27T04:16:13.065Z,19.93
2018-12-27T04:18:41.519Z,17.97
2018-12-27T04:21:10.035Z,18.93
2018-12-27T04:23:38.533Z,18.93
2018-12-27T04:26:07.067Z,19.10
2018-12-27T04:28:35.504Z,18.20
2018-12-27T04:31:03.952Z,19.20
2018-12-27T04:33:32.729Z,14.90
2018-12-27T04:36:01.342Z,16.07
2018-12-27T04:38:29.808Z,16.97
2018-12-27T04:40:58.246Z,17.83
2018-12-27T04:43:26.783Z,17.33
2018-12-27T04:45:55.222Z,19.20
2018-12-27T04:48:23.675Z,19.03
2018-12-27T04:50:52.151Z,21.20
2018-12-27T04:53:20.649Z,20.90
2018-12-27T04:55:49.102Z,23.70
2018-12-27T04:58:17.575Z,25.13
2018-12-27T05:00:46.015Z,25.37
2018-12-27T05:03:14.483Z,28.20
2018-12-27T05:05:42.918Z,28.07
2018-12-27T05:08:11.367Z,29.20
2018-12-27T05:10:39.812Z,29.67
2018-12-27T05:13:08.267Z,26.13
2018-12-27T05:15:36.702Z,24.30
2018-12-27T05:18:05.160Z,22.90
2018-12-27T05:20:33.710Z,22.40
2018-12-27T05:23:02.192Z,21.93
2018-12-27T05:25:30.623Z,24.07
2018-12-27T05:27:59.070Z,24.50
2018-12-27T05:30:27.510Z,26.03
2018-12-27T05:32:55.979Z,20.70
2018-12-27T05:35:24.414Z,23.60
2018-12-27T05:37:52.850Z,23.77
2018-12-27T05:40:21.327Z,24.13
2018-12-27T05:42:49.762Z,22.27
2018-12-27T05:45:18.220Z,24.80
2018-12-27T05:47:46.673Z,21.27
2018-12-27T05:50:15.151Z,20.07
2018-12-27T05:52:43.570Z,19.40
2018-12-27T05:55:12.022Z,20.13
2018-12-27T05:57:40.459Z,19.57
2018-12-27T06:00:08.927Z,17.27
2018-12-27T06:02:37.361Z,20.90
2018-12-27T06:05:05.826Z,20.23
2018-12-27T06:07:34.307Z,16.20
2018-12-27T06:10:02.789Z,20.73
2018-12-27T06:12:31.311Z,20.47
2018-12-27T06:14:59.754Z,19.47
2018-12-27T06:17:28.197Z,19.47
2018-12-27T06:19:56.667Z,20.90
2018-12-27T06:22:25.102Z,17.37
2018-12-27T06:24:53.563Z,20.47
2018-12-27T06:27:21.994Z,19.97
2018-12-27T06:29:50.445Z,18.83
2018-12-27T06:32:18.922Z,19.20
2018-12-27T06:34:47.382Z,20.70
2018-12-27T06:37:15.822Z,19.60
2018-12-27T06:39:44.284Z,20.97
2018-12-27T06:42:12.711Z,17.47
2018-12-27T06:44:41.157Z,18.70
2018-12-27T06:47:09.589Z,17.77
2018-12-27T06:49:38.066Z,19.67
2018-12-27T06:52:06.525Z,20.77
2018-12-27T06:54:34.989Z,17.90
2018-12-27T06:57:03.506Z,18.03
2018-12-27T06:59:31.952Z,18.50
2018-12-27T07:02:00.477Z,18.27
2018-12-27T07:04:28.929Z,19.07
2018-12-27T07:06:57.396Z,19.87
2018-12-27T07:09:25.844Z,17.73
2018-12-27T07:11:54.296Z,17.43
2018-12-27T07:14:22.722Z,18.60
2018-12-27T07:16:51.175Z,21.30
2018-12-27T07:19:19.623Z,19.70
2018-12-27T07:21:48.074Z,19.07
2018-12-27T07:24:16.522Z,20.97
2018-12-27T07:26:44.977Z,22.90
2018-12-27T07:29:13.433Z,18.43
2018-12-27T07:31:41.887Z,20.53
2018-12-27T07:34:10.318Z,19.93
2018-12-27T07:36:38.840Z,19.87
2018-12-27T07:39:07.290Z,20.60
2018-12-27T07:41:35.751Z,18.77
2018-12-27T07:44:04.194Z,20.60
2018-12-27T07:46:32.652Z,21.57
2018-12-27T07:49:01.125Z,22.07
2018-12-27T07:51:29.624Z,20.03
2018-12-27T07:53:58.065Z,19.30
2018-12-27T07:56:26.510Z,21.23
2018-12-27T07:58:55.014Z,19.80
2018-12-27T08:01:23.509Z,19.47
2018-12-27T08:03:52.021Z,19.53
2018-12-27T08:06:20.462Z,21.60
2018-12-27T08:08:48.935Z,22.97
2018-12-27T08:11:17.371Z,22.30
2018-12-27T08:13:45.823Z,21.43
2018-12-27T08:16:14.268Z,22.37
2018-12-27T08:18:42.728Z,20.93
2018-12-27T08:21:11.254Z,20.90
2018-12-27T08:23:39.708Z,23.13
2018-12-27T08:26:08.151Z,20.63
2018-12-27T08:28:36.610Z,23.23
2018-12-27T08:31:05.050Z,22.53
2018-12-27T08:33:33.606Z,25.30
2018-12-27T08:36:02.106Z,22.13
2018-12-27T08:38:30.869Z,23.43
2018-12-27T08:40:59.298Z,24.00
2018-12-27T08:43:27.749Z,24.27
2018-12-27T08:45:56.208Z,24.73
2018-12-27T08:48:24.700Z,23.20
2018-12-27T08:50:53.203Z,23.23
2018-12-27T08:53:21.785Z,25.07
2018-12-27T08:55:50.221Z,26.77
2018-12-27T08:58:18.692Z,23.40
2018-12-27T09:00:47.142Z,27.70
2018-12-27T09:03:15.661Z,23.33
2018-12-27T09:05:44.102Z,28.47
2018-12-27T09:08:12.562Z,29.37
2018-12-27T09:10:40.999Z,27.03
2018-12-27T09:13:09.457Z,28.83
2018-12-27T09:15:37.892Z,27.27
2018-12-27T09:18:06.375Z,30.27
2018-12-27T09:20:34.818Z,30.43
2018-12-27T09:23:03.258Z,26.40
2018-12-27T09:25:31.720Z,27.50
2018-12-27T09:28:00.164Z,28.50
2018-12-27T09:30:28.613Z,25.47
2018-12-27T09:32:57.074Z,26.97
2018-12-27T09:35:26.541Z,28.47
2018-12-27T09:37:55.133Z,25.67
2018-12-27T09:40:23.590Z,27.27
2018-12-27T09:42:52.013Z,26.77
2018-12-27T09:45:20.471Z,28.50
2018-12-27T09:47:48.908Z,27.27
2018-12-27T09:50:17.363Z,27.67
2018-12-27T09:52:45.814Z,28.07
2018-12-27T09:55:14.265Z,28.90
2018-12-27T09:57:42.698Z,28.07
2018-12-27T10:00:11.327Z,31.87
2018-12-27T10:02:39.775Z,29.77
2018-12-27T10:05:08.230Z,30.33
2018-12-27T10:07:36.735Z,30.17
2018-12-27T10:10:06.142Z,28.03
2018-12-27T10:12:34.593Z,30.60
2018-12-27T10:15:03.119Z,30.70
2018-12-27T10:17:31.558Z,26.57
2018-12-27T10:20:00.028Z,30.90
2018-12-27T10:22:28.475Z,38.97
2018-12-27T10:24:56.938Z,34.63
2018-12-27T10:27:25.399Z,27.33
2018-12-27T10:29:53.840Z,28.83
2018-12-27T10:32:22.294Z,27.27
2018-12-27T10:34:50.742Z,29.50
2018-12-27T10:37:19.195Z,29.00
2018-12-27T10:39:47.668Z,28.80
2018-12-27T10:42:16.122Z,26.43
2018-12-27T10:44:44.567Z,25.27
2018-12-27T10:47:13.014Z,27.97
2018-12-27T10:49:41.461Z,27.57
2018-12-27T10:52:09.930Z,26.47
2018-12-27T10:54:38.395Z,25.87
2018-12-27T10:57:06.859Z,25.50
2018-12-27T10:59:35.357Z,25.90
2018-12-27T11:02:03.913Z,26.60
2018-12-27T11:04:32.342Z,28.57
2018-12-27T11:07:00.821Z,27.17
2018-12-27T11:09:29.269Z,25.47
2018-12-27T11:11:57.811Z,23.73
2018-12-27T11:14:26.253Z,23.83
2018-12-27T11:16:54.705Z,24.43
2018-12-27T11:19:23.175Z,22.87
2018-12-27T11:21:51.632Z,27.87
2018-12-27T11:24:20.078Z,23.77
2018-12-27T11:26:48.553Z,24.50
2018-12-27T11:29:17.000Z,23.30
2018-12-27T11:31:45.624Z,24.93
2018-12-27T11:34:14.066Z,24.90
2018-12-27T11:36:42.507Z,22.87
2018-12-27T11:39:10.962Z,21.97
2018-12-27T11:41:39.402Z,25.43
2018-12-27T11:44:07.922Z,21.53
2018-12-27T11:46:36.370Z,24.43
2018-12-27T11:49:04.825Z,22.73
2018-12-27T11:51:33.286Z,21.07
2018-12-27T11:54:01.751Z,23.00
2018-12-27T11:56:30.188Z,22.13
2018-12-27T11:58:58.637Z,20.80
2018-12-27T12:01:27.125Z,24.13
2018-12-27T12:03:55.586Z,23.47
2018-12-27T12:06:24.025Z,23.87
2018-12-27T12:08:52.553Z,21.73
2018-12-27T12:11:20.985Z,25.50
2018-12-27T12:13:49.438Z,23.87
2018-12-27T12:16:17.885Z,22.67
2018-12-27T12:18:46.348Z,22.10
2018-12-27T12:21:14.824Z,23.47
2018-12-27T12:23:43.289Z,21.67
2018-12-27T12:26:11.730Z,22.27
2018-12-27T12:28:40.185Z,25.10
2018-12-27T12:31:08.630Z,27.43
2018-12-27T12:33:37.094Z,26.70
2018-12-27T12:36:10.546Z,23.93
2018-12-27T12:38:36.189Z,22.37
2018-12-27T12:41:04.618Z,23.03
2018-12-27T12:43:33.052Z,23.90
2018-12-27T12:46:01.512Z,21.73
2018-12-27T12:48:29.953Z,22.17
2018-12-27T12:50:58.410Z,21.90
2018-12-27T12:53:26.875Z,23.23
2018-12-27T12:55:55.327Z,22.93
2018-12-27T12:58:23.766Z,23.03
2018-12-27T13:00:52.234Z,22.30
2018-12-27T13:03:20.670Z,24.30
2018-12-27T13:05:49.127Z,20.13
2018-12-27T13:08:17.570Z,23.30
2018-12-27T13:10:46.036Z,23.10
2018-12-27T13:13:14.471Z,22.30
2018-12-27T13:15:42.923Z,20.77
2018-12-27T13:18:11.382Z,20.57
2018-12-27T13:20:39.904Z,24.63
2018-12-27T13:23:08.339Z,24.67
2018-12-27T13:25:36.781Z,22.37
2018-12-27T13:28:05.240Z,24.57
2018-12-27T13:30:33.685Z,25.40
2018-12-27T13:33:02.125Z,21.23
2018-12-27T13:35:30.578Z,23.97
2018-12-27T13:37:59.064Z,22.93
2018-12-27T13:40:27.507Z,21.97
2018-12-27T13:42:55.956Z,23.23
2018-12-27T13:45:24.427Z,26.60
2018-12-27T13:47:53.621Z,22.33
2018-12-27T13:50:22.103Z,22.13
2018-12-27T13:52:50.560Z,20.97
2018-12-27T13:55:19.008Z,19.87
2018-12-27T13:57:48.265Z,20.93
2018-12-27T14:00:16.715Z,21.60
2018-12-27T14:02:45.168Z,18.50
2018-12-27T14:05:13.615Z,20.60
2018-12-27T14:07:42.082Z,19.67
2018-12-27T14:10:10.514Z,21.10
2018-12-27T14:12:38.964Z,19.33
2018-12-27T14:15:07.877Z,20.07
2018-12-27T14:17:36.323Z,16.97
2018-12-27T14:20:07.403Z,22.80
2018-12-27T14:22:35.855Z,17.60
2018-12-27T14:25:04.463Z,18.83
2018-12-27T14:27:32.913Z,18.57
2018-12-27T14:30:01.363Z,23.53
2018-12-27T14:32:29.806Z,21.70
2018-12-27T14:34:58.253Z,17.83
2018-12-27T14:37:26.721Z,20.87
2018-12-27T14:39:55.153Z,20.93
2018-12-27T14:42:23.698Z,23.40
2018-12-27T14:44:52.139Z,23.73
2018-12-27T14:47:20.588Z,25.53
2018-12-27T14:49:49.029Z,25.07
2018-12-27T14:52:17.667Z,20.33
2018-12-27T14:54:46.110Z,23.67
2018-12-27T14:57:14.629Z,26.20
2018-12-27T14:59:43.073Z,23.87
2018-12-27T15:02:11.502Z,24.00
2018-12-27T15:04:39.968Z,28.73
2018-12-27T15:07:08.398Z,25.77
2018-12-27T15:09:36.864Z,24.13
2018-12-27T15:12:05.289Z,24.93
2018-12-27T15:14:33.762Z,30.50
2018-12-27T15:17:02.209Z,24.57
2018-12-27T15:19:30.665Z,27.23
2018-12-27T15:21:59.093Z,26.90
2018-12-27T15:24:27.554Z,28.57
2018-12-27T15:26:55.986Z,23.33
2018-12-27T15:29:24.493Z,24.83
2018-12-27T15:31:52.953Z,25.30
2018-12-27T15:34:21.691Z,27.53
2018-12-27T15:36:54.345Z,23.67
2018-12-27T15:39:20.331Z,28.40
2018-12-27T15:41:48.783Z,26.93
2018-12-27T15:44:17.242Z,30.67
2018-12-27T15:46:45.674Z,32.90
2018-12-27T15:49:14.131Z,28.83
2018-12-27T15:51:42.573Z,31.33
2018-12-27T15:54:11.027Z,32.97
2018-12-27T15:56:39.470Z,28.00
2018-12-27T15:59:07.937Z,31.40
2018-12-27T16:01:36.387Z,30.63
2018-12-27T16:04:04.836Z,29.03
2018-12-27T16:06:33.273Z,32.50
2018-12-27T16:09:01.731Z,28.43
2018-12-27T16:11:30.169Z,27.00
2018-12-27T16:13:58.644Z,31.53
2018-12-27T16:16:27.074Z,28.03
2018-12-27T16:18:55.523Z,32.23
2018-12-27T16:21:23.966Z,35.60
2018-12-27T16:23:52.405Z,30.17
2018-12-27T16:26:20.861Z,29.13
2018-12-27T16:28:49.293Z,33.27
2018-12-27T16:31:17.759Z,34.87
2018-12-27T16:33:46.194Z,34.47
2018-12-27T16:36:14.662Z,38.17
2018-12-27T16:38:43.098Z,39.80
2018-12-27T16:41:11.538Z,33.23
2018-12-27T16:43:39.977Z,33.13
2018-12-27T16:46:08.441Z,29.50
2018-12-27T16:48:37.251Z,32.47
2018-12-27T16:51:05.723Z,30.77
2018-12-27T16:53:34.190Z,31.57
2018-12-27T16:56:02.692Z,33.17
2018-12-27T16:58:31.140Z,37.03
2018-12-27T17:00:59.596Z,28.07
2018-12-27T17:03:28.053Z,28.20
2018-12-27T17:05:56.510Z,33.73
2018-12-27T17:08:24.950Z,33.20
2018-12-27T17:10:53.418Z,29.50
2018-12-27T17:13:21.847Z,31.27
2018-12-27T17:15:50.299Z,28.30
2018-12-27T17:18:18.728Z,31.73
2018-12-27T17:20:47.190Z,27.97
2018-12-27T17:23:15.685Z,30.47
2018-12-27T17:25:44.133Z,27.80
2018-12-27T17:28:12.581Z,28.47
2018-12-27T17:30:41.026Z,33.90
2018-12-27T17:33:09.490Z,32.57
2018-12-27T17:35:37.923Z,30.10
2018-12-27T17:38:06.391Z,27.47
2018-12-27T17:40:34.825Z,29.67
2018-12-27T17:43:03.286Z,29.07
2018-12-27T17:45:31.752Z,24.80
2018-12-27T17:48:00.202Z,30.20
2018-12-27T17:50:28.639Z,26.67
2018-12-27T17:52:57.099Z,24.07
2018-12-27T17:55:25.545Z,26.60
2018-12-27T17:57:54.019Z,26.23
2018-12-27T18:00:22.479Z,27.90
2018-12-27T18:02:50.942Z,24.57
2018-12-27T18:05:19.400Z,25.80
2018-12-27T18:07:47.865Z,24.27
2018-12-27T18:10:16.370Z,29.50
2018-12-27T18:12:44.828Z,25.43
2018-12-27T18:15:13.267Z,24.47
2018-12-27T18:17:43.091Z,26.83
2018-12-27T18:20:11.641Z,27.80
2018-12-27T18:22:40.110Z,26.60
2018-12-27T18:25:08.559Z,28.03
2018-12-27T18:27:37.019Z,30.20
2018-12-27T18:30:07.185Z,25.60
2018-12-27T18:32:35.694Z,30.07
2018-12-27T18:35:05.482Z,30.13
2018-12-27T18:37:37.730Z,27.13
2018-12-27T18:40:04.978Z,25.50
2018-12-27T18:42:33.433Z,29.07
2018-12-27T18:45:01.874Z,31.87
2018-12-27T18:47:30.318Z,28.30
2018-12-27T18:49:58.807Z,31.20
2018-12-27T18:52:27.335Z,31.70
2018-12-27T18:54:55.794Z,34.17
2018-12-27T18:57:24.240Z,32.80
2018-12-27T18:59:52.692Z,31.63
2018-12-27T19:02:21.144Z,35.37
2018-12-27T19:04:49.596Z,32.03
2018-12-27T19:07:18.051Z,31.10
2018-12-27T19:09:46.506Z,35.17
2018-12-27T19:12:50.846Z,31.83
2018-12-27T19:15:19.310Z,30.83
2018-12-27T19:17:49.581Z,37.37
2018-12-27T19:20:18.050Z,31.47
2018-12-27T19:22:49.556Z,34.97
2018-12-27T19:25:18.018Z,33.13
2018-12-27T19:27:46.470Z,35.77
2018-12-27T19:30:14.935Z,37.03
2018-12-27T19:32:43.381Z,33.00
2018-12-27T19:35:11.838Z,36.63
2018-12-27T19:37:40.276Z,29.70
2018-12-27T19:40:08.735Z,35.47
2018-12-27T19:42:37.176Z,32.53
2018-12-27T19:45:05.629Z,30.83
2018-12-27T19:47:34.062Z,30.40
2018-12-27T19:50:02.530Z,30.77
2018-12-27T19:52:31.012Z,31.60
2018-12-27T19:54:59.517Z,35.00
2018-12-27T19:57:27.950Z,31.60
2018-12-27T19:59:56.388Z,31.73
2018-12-27T20:02:24.845Z,32.93
2018-12-27T20:04:53.300Z,28.73
2018-12-27T20:07:21.757Z,29.50
2018-12-27T20:09:50.215Z,29.97
2018-12-27T20:12:18.691Z,33.57
2018-12-27T20:14:47.122Z,31.33
2018-12-27T20:17:15.578Z,30.87
2018-12-27T20:19:44.014Z,32.07
2018-12-27T20:22:12.533Z,31.97
2018-12-27T20:24:41.107Z,33.07
2018-12-27T20:27:09.563Z,34.13
2018-12-27T20:29:38.009Z,31.10
2018-12-27T20:32:06.489Z,32.00
2018-12-27T20:34:34.927Z,32.53
2018-12-27T20:37:03.378Z,28.77
2018-12-27T20:39:31.830Z,30.00
2018-12-27T20:42:01.507Z,30.50
2018-12-27T20:44:30.015Z,36.73
2018-12-27T20:46:58.536Z,33.03
2018-12-27T20:49:26.974Z,32.50
2018-12-27T20:51:55.434Z,33.90
2018-12-27T20:54:23.867Z,28.83
2018-12-27T20:56:52.305Z,31.27
2018-12-27T20:59:20.770Z,31.47
2018-12-27T21:01:49.207Z,33.27
2018-12-27T21:04:17.654Z,31.17
2018-12-27T21:06:46.097Z,28.47
2018-12-27T21:09:14.558Z,31.10
2018-12-27T21:11:42.977Z,33.63
2018-12-27T21:14:11.434Z,35.97
2018-12-27T21:16:39.882Z,35.77
2018-12-27T21:19:08.338Z,31.47
2018-12-27T21:21:36.786Z,29.47
2018-12-27T21:24:05.243Z,32.07
2018-12-27T21:26:33.681Z,32.27
2018-12-27T21:29:02.144Z,31.23
2018-12-27T21:31:30.579Z,31.17
2018-12-27T21:33:59.035Z,30.03
2018-12-27T21:36:27.480Z,30.47
2018-12-27T21:38:55.942Z,29.83
2018-12-27T21:41:24.392Z,30.77
2018-12-27T21:43:52.842Z,32.43
2018-12-27T21:46:21.286Z,32.53
2018-12-27T21:48:49.756Z,30.30
2018-12-27T21:51:18.204Z,31.30
2018-12-27T21:53:46.684Z,32.70
2018-12-27T21:56:15.133Z,35.17
2018-12-27T21:58:43.574Z,36.57
2018-12-27T22:01:12.064Z,34.13
2018-12-27T22:03:40.562Z,31.77
2018-12-27T22:06:09.020Z,36.23
2018-12-27T22:08:37.454Z,35.30
2018-12-27T22:11:05.914Z,30.70
2018-12-27T22:13:34.367Z,33.47
2018-12-27T22:16:02.822Z,32.50
2018-12-27T22:18:31.264Z,36.07
2018-12-27T22:20:59.727Z,35.77
2018-12-27T22:23:28.169Z,32.30
2018-12-27T22:25:56.625Z,34.70
2018-12-27T22:28:25.064Z,39.17
2018-12-27T22:30:53.578Z,33.80
2018-12-27T22:33:22.005Z,34.87
2018-12-27T22:35:50.506Z,34.90
2018-12-27T22:38:18.999Z,34.13
2018-12-27T22:40:47.497Z,37.50
2018-12-27T22:43:15.946Z,36.50
2018-12-27T22:45:44.402Z,35.40
2018-12-27T22:48:12.841Z,36.90
2018-12-27T22:50:41.289Z,36.43
2018-12-27T22:53:09.801Z,37.50
2018-12-27T22:55:38.252Z,37.50
2018-12-27T22:58:06.691Z,37.03
2018-12-27T23:00:36.930Z,39.90
2018-12-27T23:03:05.378Z,38.87
2018-12-27T23:05:33.830Z,41.77
2018-12-27T23:08:02.291Z,41.47
2018-12-27T23:10:30.732Z,47.43
2018-12-27T23:12:59.179Z,45.27
2018-12-27T23:15:27.703Z,53.13
2018-12-27T23:17:56.168Z,49.50
2018-12-27T23:20:24.604Z,43.57
2018-12-27T23:22:53.061Z,50.53
2018-12-27T23:25:21.508Z,48.23
2018-12-27T23:27:49.969Z,48.83
2018-12-27T23:30:18.405Z,49.57
2018-12-27T23:32:46.873Z,49.43
2018-12-27T23:35:15.374Z,53.10
2018-12-27T23:37:43.837Z,51.63
2018-12-27T23:40:12.276Z,52.20
2018-12-27T23:42:40.723Z,55.60
2018-12-27T23:45:09.163Z,52.47
2018-12-27T23:47:37.619Z,53.93
2018-12-27T23:50:06.209Z,51.13
2018-12-27T23:52:34.663Z,50.37
2018-12-27T23:55:03.101Z,51.30
2018-12-27T23:57:31.567Z,49.33
